createdAt,value
2018-09-06T00:01:44.385Z,65.60
2018-09-06T00:04:12.654Z,65.20
2018-09-06T00:06:40.919Z,65.00
2018-09-06T00:09:09.747Z,64.70
2018-09-06T00:11:38.159Z,64.50
2018-09-06T00:14:06.445Z,64.40
2018-09-06T00:16:34.749Z,65.10
2018-09-06T00:19:03.024Z,64.50
2018-09-06T00:21:31.296Z,64.70
2018-09-06T00:23:59.583Z,65.00
2018-09-06T00:26:27.845Z,64.90
2018-09-06T00:28:56.121Z,64.80
2018-09-06T00:31:24.391Z,64.90
2018-09-06T00:33:52.671Z,64.80
2018-09-06T00:36:20.935Z,64.90
2018-09-06T00:38:49.203Z,65.60
2018-09-06T00:41:17.516Z,65.30
2018-09-06T00:43:45.873Z,65.10
2018-09-06T00:46:14.169Z,64.70
2018-09-06T00:48:42.434Z,64.40
2018-09-06T00:51:10.755Z,64.20
2018-09-06T00:53:39.049Z,64.40
2018-09-06T00:56:07.326Z,64.30
2018-09-06T00:58:35.643Z,64.20
2018-09-06T01:01:03.923Z,64.10
2018-09-06T01:03:32.179Z,64.00
2018-09-06T01:06:00.457Z,64.30
2018-09-06T01:08:28.723Z,64.50
2018-09-06T01:10:57.003Z,64.80
2018-09-06T01:13:25.270Z,64.50
2018-09-06T01:15:53.560Z,64.50
2018-09-06T01:18:21.843Z,64.70
2018-09-06T01:20:50.190Z,64.80
2018-09-06T01:23:18.477Z,65.00
2018-09-06T01:25:47.651Z,65.00
2018-09-06T01:28:16.516Z,64.90
2018-09-06T01:30:44.767Z,64.40
2018-09-06T01:33:13.052Z,64.10
2018-09-06T01:35:46.320Z,64.00
2018-09-06T01:38:14.597Z,64.10
2018-09-06T01:40:42.876Z,64.20
2018-09-06T01:43:11.109Z,64.80
2018-09-06T01:45:39.374Z,64.00
2018-09-06T01:48:07.644Z,64.10
2018-09-06T01:50:35.912Z,64.30
2018-09-06T01:53:04.184Z,64.50
2018-09-06T01:55:32.476Z,64.80
2018-09-06T01:58:00.734Z,64.70
2018-09-06T02:00:29.006Z,64.40
2018-09-06T02:02:57.260Z,64.20
2018-09-06T02:05:30.439Z,64.10
2018-09-06T02:07:59.160Z,64.10
2018-09-06T02:10:27.438Z,64.40
2018-09-06T02:12:55.741Z,64.50
2018-09-06T02:15:24.006Z,64.20
2018-09-06T02:17:52.264Z,64.20
2018-09-06T02:20:20.518Z,64.40
2018-09-06T02:22:48.794Z,64.50
2018-09-06T02:25:17.100Z,64.70
2018-09-06T02:27:45.360Z,64.90
2018-09-06T02:30:13.639Z,64.60
2018-09-06T02:32:41.892Z,64.40
2018-09-06T02:35:10.151Z,64.10
2018-09-06T02:37:38.636Z,64.00
2018-09-06T02:40:07.674Z,64.30
2018-09-06T02:42:35.976Z,64.30
2018-09-06T02:45:04.269Z,64.20
2018-09-06T02:47:32.580Z,64.20
2018-09-06T02:50:06.250Z,64.60
2018-09-06T02:52:34.516Z,64.40
2018-09-06T02:55:02.784Z,64.60
2018-09-06T02:57:31.073Z,64.60
2018-09-06T02:59:59.340Z,64.50
2018-09-06T03:02:27.611Z,64.50
2018-09-06T03:04:55.868Z,64.60
2018-09-06T03:07:24.144Z,64.80
2018-09-06T03:09:52.531Z,64.80
2018-09-06T03:12:20.818Z,65.00
2018-09-06T03:14:49.095Z,65.00
2018-09-06T03:17:17.388Z,64.70
2018-09-06T03:19:45.676Z,64.60
2018-09-06T03:22:14.020Z,64.10
2018-09-06T03:24:42.291Z,64.00
2018-09-06T03:27:10.588Z,63.90
2018-09-06T03:29:38.864Z,63.80
2018-09-06T03:32:07.133Z,64.10
2018-09-06T03:34:35.402Z,64.30
2018-09-06T03:37:03.685Z,64.60
2018-09-06T03:39:31.947Z,64.50
2018-09-06T03:42:00.216Z,64.40
2018-09-06T03:44:28.484Z,64.50
2018-09-06T03:46:56.773Z,64.50
2018-09-06T03:49:25.047Z,64.60
2018-09-06T03:51:53.341Z,64.80
2018-09-06T03:54:21.603Z,64.80
2018-09-06T03:56:49.864Z,64.60
2018-09-06T03:59:18.157Z,64.60
2018-09-06T04:01:46.442Z,64.70
2018-09-06T04:04:14.708Z,64.80
2018-09-06T04:06:43.903Z,65.00
2018-09-06T04:09:12.259Z,65.00
2018-09-06T04:11:40.604Z,64.90
2018-09-06T04:14:08.875Z,64.40
2018-09-06T04:16:37.469Z,64.30
2018-09-06T04:19:06.103Z,64.20
2018-09-06T04:21:34.484Z,64.20
2018-09-06T04:24:02.772Z,64.40
2018-09-06T04:26:31.253Z,64.10
2018-09-06T04:28:59.529Z,64.20
2018-09-06T04:31:27.788Z,64.20
2018-09-06T04:33:56.613Z,64.30
2018-09-06T04:36:24.889Z,64.40
2018-09-06T04:38:53.210Z,64.60
2018-09-06T04:41:21.493Z,64.40
2018-09-06T04:43:49.873Z,64.40
2018-09-06T04:46:18.078Z,64.20
2018-09-06T04:48:46.337Z,64.00
2018-09-06T04:51:14.611Z,64.90
2018-09-06T04:53:42.905Z,64.50
2018-09-06T04:56:11.167Z,64.40
2018-09-06T04:58:39.550Z,64.20
2018-09-06T05:01:07.736Z,63.70
2018-09-06T05:03:36.003Z,63.50
2018-09-06T05:06:04.327Z,63.30
2018-09-06T05:08:32.684Z,63.80
2018-09-06T05:11:00.974Z,63.70
2018-09-06T05:13:29.248Z,64.10
2018-09-06T05:15:57.519Z,63.60
2018-09-06T05:18:25.900Z,63.60
2018-09-06T05:20:54.184Z,63.60
2018-09-06T05:23:22.469Z,64.00
2018-09-06T05:25:50.748Z,63.80
2018-09-06T05:28:19.045Z,63.70
2018-09-06T05:30:47.362Z,63.80
2018-09-06T05:33:15.610Z,63.80
2018-09-06T05:35:43.905Z,63.60
2018-09-06T05:38:12.288Z,63.90
2018-09-06T05:40:40.600Z,64.10
2018-09-06T05:43:08.870Z,64.00
2018-09-06T05:45:37.153Z,63.70
2018-09-06T05:48:05.439Z,63.40
2018-09-06T05:50:33.732Z,63.30
2018-09-06T05:53:02.615Z,63.40
2018-09-06T05:55:31.577Z,63.60
2018-09-06T05:57:59.897Z,63.50
2018-09-06T06:00:33.382Z,63.40
2018-09-06T06:03:03.615Z,63.50
2018-09-06T06:05:31.925Z,63.70
2018-09-06T06:08:11.581Z,63.90
2018-09-06T06:10:39.963Z,64.10
2018-09-06T06:13:08.221Z,63.90
2018-09-06T06:15:36.575Z,63.80
2018-09-06T06:18:05.024Z,64.10
2018-09-06T06:20:33.291Z,64.10
2018-09-06T06:23:01.568Z,64.30
2018-09-06T06:25:29.867Z,64.70
2018-09-06T06:27:58.148Z,64.70
2018-09-06T06:30:26.500Z,64.50
2018-09-06T06:32:54.777Z,64.10
2018-09-06T06:35:23.239Z,63.80
2018-09-06T06:37:51.588Z,63.50
2018-09-06T06:40:19.859Z,63.60
2018-09-06T06:42:48.131Z,63.60
2018-09-06T06:45:16.391Z,64.50
2018-09-06T06:47:44.670Z,64.20
2018-09-06T06:50:12.993Z,64.60
2018-09-06T06:52:41.249Z,64.70
2018-09-06T06:55:09.684Z,64.60
2018-09-06T06:57:37.971Z,64.60
2018-09-06T07:00:06.296Z,64.90
2018-09-06T07:02:34.588Z,65.00
2018-09-06T07:05:02.848Z,65.00
2018-09-06T07:07:31.127Z,65.10
2018-09-06T07:09:59.409Z,64.70
2018-09-06T07:12:27.689Z,64.40
2018-09-06T07:14:55.948Z,64.20
2018-09-06T07:17:24.232Z,64.20
2018-09-06T07:19:52.514Z,64.60
2018-09-06T07:22:20.760Z,65.10
2018-09-06T07:24:49.024Z,65.00
2018-09-06T07:27:17.444Z,65.10
2018-09-06T07:29:45.722Z,65.10
2018-09-06T07:32:14.074Z,65.20
2018-09-06T07:34:42.356Z,65.50
2018-09-06T07:37:10.654Z,66.10
2018-09-06T07:39:38.915Z,66.00
2018-09-06T07:42:07.172Z,66.50
2018-09-06T07:44:35.434Z,65.30
2018-09-06T07:47:03.709Z,65.80
2018-09-06T07:49:31.980Z,65.20
2018-09-06T07:52:00.258Z,65.40
2018-09-06T07:54:28.535Z,64.90
2018-09-06T07:56:56.804Z,64.70
2018-09-06T07:59:25.200Z,64.70
2018-09-06T08:01:53.506Z,64.90
2018-09-06T08:04:21.776Z,65.20
2018-09-06T08:06:50.032Z,65.40
2018-09-06T08:09:18.313Z,65.30
2018-09-06T08:11:46.590Z,65.20
2018-09-06T08:14:14.848Z,65.20
2018-09-06T08:16:43.126Z,65.60
2018-09-06T08:19:11.437Z,65.70
2018-09-06T08:21:39.716Z,65.80
2018-09-06T08:24:07.992Z,65.50
2018-09-06T08:26:36.259Z,66.00
2018-09-06T08:29:04.540Z,64.80
2018-09-06T08:31:33.001Z,64.30
2018-09-06T08:34:01.278Z,64.00
2018-09-06T08:36:29.563Z,63.90
2018-09-06T08:38:57.831Z,64.10
2018-09-06T08:41:26.102Z,64.30
2018-09-06T08:43:54.366Z,64.50
2018-09-06T08:46:22.665Z,64.70
2018-09-06T08:48:51.595Z,65.10
2018-09-06T08:51:19.936Z,65.10
2018-09-06T08:53:48.231Z,65.00
2018-09-06T08:56:16.504Z,65.10
2018-09-06T08:58:44.776Z,65.30
2018-09-06T09:01:18.500Z,65.20
2018-09-06T09:03:46.770Z,65.60
2018-09-06T09:06:15.100Z,66.20
2018-09-06T09:08:43.374Z,65.60
2018-09-06T09:11:11.660Z,65.30
2018-09-06T09:13:39.945Z,65.00
2018-09-06T09:16:08.277Z,64.10
2018-09-06T09:18:36.485Z,64.60
2018-09-06T09:21:04.735Z,65.00
2018-09-06T09:23:33.017Z,64.70
2018-09-06T09:26:01.283Z,64.60
2018-09-06T09:28:29.545Z,64.70
2018-09-06T09:30:57.872Z,64.50
2018-09-06T09:33:26.125Z,65.10
2018-09-06T09:35:54.425Z,65.40
2018-09-06T09:38:22.669Z,65.00
2018-09-06T09:40:50.977Z,64.20
2018-09-06T09:43:19.252Z,64.00
2018-09-06T09:45:47.519Z,64.20
2018-09-06T09:48:15.834Z,64.50
2018-09-06T09:53:11.645Z,65.40
2018-09-06T09:55:39.923Z,65.00
2018-09-06T09:58:08.235Z,64.80
2018-09-06T10:00:38.334Z,64.50
2018-09-06T10:03:11.927Z,64.40
2018-09-06T10:05:45.593Z,63.90
2018-09-06T10:08:19.139Z,64.30
2018-09-06T10:10:47.409Z,64.40
2018-09-06T10:13:15.677Z,64.40
2018-09-06T10:15:43.973Z,64.70
2018-09-06T10:18:12.306Z,64.30
2018-09-06T10:20:40.774Z,64.60
2018-09-06T10:23:09.053Z,64.60
2018-09-06T10:25:37.327Z,65.00
2018-09-06T10:28:05.680Z,65.00
2018-09-06T10:30:33.946Z,64.40
2018-09-06T10:33:02.257Z,65.50
2018-09-06T10:35:30.597Z,65.40
2018-09-06T10:37:58.838Z,64.80
2018-09-06T10:40:27.160Z,64.50
2018-09-06T10:42:55.399Z,64.10
2018-09-06T10:45:23.782Z,64.10
2018-09-06T10:47:52.108Z,64.30
2018-09-06T10:50:20.343Z,64.00
2018-09-06T10:52:48.626Z,64.20
2018-09-06T10:55:16.920Z,64.20
2018-09-06T10:57:45.217Z,64.20
2018-09-06T11:00:13.558Z,64.80
2018-09-06T11:02:41.873Z,64.60
2018-09-06T11:05:10.159Z,64.60
2018-09-06T11:07:38.417Z,64.80
2018-09-06T11:10:06.713Z,64.70
2018-09-06T11:12:35.098Z,64.60
2018-09-06T11:15:03.442Z,64.20
2018-09-06T11:17:31.672Z,64.70
2018-09-06T11:19:59.926Z,64.50
2018-09-06T11:22:28.369Z,64.10
2018-09-06T11:24:56.479Z,63.60
2018-09-06T11:27:24.810Z,63.20
2018-09-06T11:29:53.050Z,63.80
2018-09-06T11:32:21.307Z,63.90
2018-09-06T11:34:49.603Z,63.70
2018-09-06T11:37:17.875Z,63.80
2018-09-06T11:39:46.421Z,65.00
2018-09-06T11:42:14.700Z,64.80
2018-09-06T11:44:43.008Z,65.10
2018-09-06T11:47:11.343Z,66.20
2018-09-06T11:49:39.556Z,65.00
2018-09-06T11:52:08.385Z,64.50
2018-09-06T11:54:36.679Z,64.20
2018-09-06T11:57:04.983Z,64.50
2018-09-06T11:59:33.276Z,65.10
2018-09-06T12:02:01.664Z,65.10
2018-09-06T12:04:29.905Z,65.20
2018-09-06T12:06:58.177Z,65.10
2018-09-06T12:09:26.455Z,65.20
2018-09-06T12:11:54.731Z,65.30
2018-09-06T12:14:23.005Z,65.90
2018-09-06T12:16:51.290Z,66.10
2018-09-06T12:19:19.659Z,66.20
2018-09-06T12:21:47.903Z,66.10
2018-09-06T12:24:16.196Z,65.80
2018-09-06T12:26:44.472Z,65.80
2018-09-06T12:29:12.767Z,65.80
2018-09-06T12:31:41.254Z,66.30
2018-09-06T12:34:09.544Z,68.00
2018-09-06T12:36:37.853Z,67.20
2018-09-06T12:39:07.664Z,68.20
2018-09-06T12:41:35.924Z,67.10
2018-09-06T12:44:04.297Z,67.00
2018-09-06T12:46:32.556Z,66.60
2018-09-06T12:49:00.840Z,67.40
2018-09-06T12:51:29.164Z,67.30
2018-09-06T12:53:57.759Z,67.10
2018-09-06T12:56:26.085Z,67.00
2018-09-06T12:58:54.341Z,67.00
2018-09-06T13:01:22.614Z,66.90
2018-09-06T13:03:50.872Z,67.30
2018-09-06T13:06:19.135Z,67.00
2018-09-06T13:08:47.430Z,66.20
2018-09-06T13:11:15.771Z,66.40
2018-09-06T13:13:44.098Z,65.90
2018-09-06T13:16:12.383Z,65.40
2018-09-06T13:18:40.778Z,65.80
2018-09-06T13:21:08.987Z,66.20
2018-09-06T13:23:37.264Z,66.80
2018-09-06T13:26:05.566Z,67.00
2018-09-06T13:28:33.877Z,67.20
2018-09-06T13:31:02.200Z,66.70
2018-09-06T13:33:30.488Z,66.30
2018-09-06T13:35:58.822Z,65.70
2018-09-06T13:38:27.152Z,65.90
2018-09-06T13:40:55.441Z,65.90
2018-09-06T13:43:23.755Z,66.20
2018-09-06T13:45:52.049Z,66.30
2018-09-06T13:48:20.426Z,66.40
2018-09-06T13:50:48.840Z,66.40
2018-09-06T13:53:17.195Z,65.70
2018-09-06T13:55:45.489Z,65.40
2018-09-06T13:58:13.796Z,65.30
2018-09-06T14:00:42.076Z,65.70
2018-09-06T14:03:10.430Z,65.70
2018-09-06T14:05:38.756Z,65.70
2018-09-06T14:08:07.035Z,66.60
2018-09-06T14:10:35.352Z,65.70
2018-09-06T14:13:03.650Z,65.60
2018-09-06T14:15:32.044Z,66.00
2018-09-06T14:18:00.413Z,65.50
2018-09-06T14:20:28.716Z,65.70
2018-09-06T14:22:57.030Z,65.80
2018-09-06T14:25:25.323Z,65.90
2018-09-06T14:27:53.684Z,66.00
2018-09-06T14:30:22.132Z,66.10
2018-09-06T14:32:50.615Z,66.20
2018-09-06T14:35:18.880Z,66.00
2018-09-06T14:37:47.182Z,65.90
2018-09-06T14:40:15.489Z,65.50
2018-09-06T14:42:43.823Z,65.50
2018-09-06T14:45:12.233Z,65.60
2018-09-06T14:47:40.683Z,65.40
2018-09-06T14:50:08.992Z,65.20
2018-09-06T14:52:37.305Z,65.20
2018-09-06T14:55:05.666Z,65.10
2018-09-06T14:57:33.954Z,65.30
2018-09-06T15:00:02.292Z,65.50
2018-09-06T15:02:30.609Z,65.40
2018-09-06T15:04:58.936Z,65.10
2018-09-06T15:07:27.268Z,64.50
2018-09-06T15:09:55.592Z,64.30
2018-09-06T15:12:23.940Z,64.10
2018-09-06T15:14:52.244Z,64.20
2018-09-06T15:17:20.528Z,64.50
2018-09-06T15:19:48.844Z,64.40
2018-09-06T15:22:17.188Z,64.20
2018-09-06T15:24:45.546Z,64.30
2018-09-06T15:27:13.824Z,64.40
2018-09-06T15:29:42.180Z,64.80
2018-09-06T15:32:10.498Z,64.90
2018-09-06T15:34:38.867Z,64.90
2018-09-06T15:37:07.150Z,64.70
2018-09-06T15:39:35.483Z,64.70
2018-09-06T15:42:03.760Z,64.80
2018-09-06T15:44:32.184Z,65.20
2018-09-06T15:47:00.484Z,65.40
2018-09-06T15:49:28.882Z,65.30
2018-09-06T15:51:57.156Z,65.00
2018-09-06T15:54:25.498Z,64.50
2018-09-06T15:56:53.791Z,64.50
2018-09-06T15:59:22.104Z,64.60
2018-09-06T16:01:50.516Z,64.90
2018-09-06T16:04:18.729Z,64.90
2018-09-06T16:06:47.020Z,64.80
2018-09-06T16:09:15.324Z,64.80
2018-09-06T16:11:43.614Z,65.10
2018-09-06T16:14:11.963Z,65.30
2018-09-06T16:16:40.251Z,65.70
2018-09-06T16:19:08.582Z,65.80
2018-09-06T16:21:36.891Z,65.50
2018-09-06T16:24:05.492Z,65.20
2018-09-06T16:26:34.092Z,65.00
2018-09-06T16:29:02.401Z,65.00
2018-09-06T16:31:30.744Z,65.40
2018-09-06T16:33:59.071Z,65.90
2018-09-06T16:36:27.412Z,65.50
2018-09-06T16:38:55.765Z,66.20
2018-09-06T16:41:24.104Z,65.70
2018-09-06T16:43:52.423Z,65.80
2018-09-06T16:46:20.718Z,66.00
2018-09-06T16:48:49.050Z,65.60
2018-09-06T16:51:17.355Z,65.30
2018-09-06T16:53:45.656Z,65.30
2018-09-06T16:56:13.985Z,65.30
2018-09-06T16:58:42.285Z,65.40
2018-09-06T17:01:10.636Z,65.50
2018-09-06T17:03:39.219Z,65.50
2018-09-06T17:06:07.533Z,65.50
2018-09-06T17:08:35.813Z,64.80
2018-09-06T17:11:04.085Z,64.30
2018-09-06T17:13:32.383Z,63.60
2018-09-06T17:16:00.677Z,63.50
2018-09-06T17:18:29.001Z,63.60
2018-09-06T17:20:57.285Z,63.70
2018-09-06T17:23:25.613Z,64.10
2018-09-06T17:25:53.903Z,64.30
2018-09-06T17:28:22.392Z,64.80
2018-09-06T17:30:50.792Z,64.90
2018-09-06T17:33:19.097Z,64.90
2018-09-06T17:35:47.423Z,65.00
2018-09-06T17:38:15.761Z,65.00
2018-09-06T17:40:44.067Z,65.20
2018-09-06T17:43:12.332Z,65.40
2018-09-06T17:45:40.890Z,65.70
2018-09-06T17:48:09.280Z,65.50
2018-09-06T17:50:37.589Z,65.50
2018-09-06T17:53:06.280Z,65.60
2018-09-06T17:55:34.767Z,65.70
2018-09-06T17:58:03.107Z,65.80
2018-09-06T18:00:31.400Z,66.10
2018-09-06T18:02:59.717Z,66.20
2018-09-06T18:05:28.033Z,65.90
2018-09-06T18:07:56.444Z,65.60
2018-09-06T18:10:24.828Z,64.90
2018-09-06T18:12:53.154Z,64.90
2018-09-06T18:15:21.551Z,64.90
2018-09-06T18:17:50.077Z,65.00
2018-09-06T18:20:18.297Z,65.30
2018-09-06T18:22:47.276Z,65.70
2018-09-06T18:25:15.673Z,66.20
2018-09-06T18:27:44.013Z,66.10
2018-09-06T18:30:12.378Z,65.90
2018-09-06T18:32:40.787Z,65.90
2018-09-06T18:35:09.443Z,65.90
2018-09-06T18:37:37.853Z,66.00
2018-09-06T18:40:06.135Z,66.40
2018-09-06T18:42:34.730Z,66.60
2018-09-06T18:45:03.297Z,66.70
2018-09-06T18:47:31.757Z,66.20
2018-09-06T18:50:00.244Z,66.10
2018-09-06T18:52:28.761Z,66.00
2018-09-06T18:54:57.108Z,65.80
2018-09-06T18:57:25.516Z,66.00
2018-09-06T18:59:53.854Z,66.10
2018-09-06T19:02:22.223Z,65.90
2018-09-06T19:04:50.612Z,66.10
2018-09-06T19:07:18.991Z,66.30
2018-09-06T19:09:47.766Z,66.40
2018-09-06T19:12:16.143Z,66.60
2018-09-06T19:14:45.093Z,66.70
2018-09-06T19:17:13.449Z,66.60
2018-09-06T19:19:41.794Z,67.50
2018-09-06T19:22:10.455Z,67.50
2018-09-06T19:24:38.795Z,67.20
2018-09-06T19:27:07.237Z,67.00
2018-09-06T19:29:35.611Z,67.00
2018-09-06T19:32:04.406Z,66.90
2018-09-06T19:34:32.825Z,67.10
2018-09-06T19:37:01.212Z,66.80
2018-09-06T19:39:29.589Z,66.70
2018-09-06T19:41:58.027Z,66.60
2018-09-06T19:44:26.555Z,66.60
2018-09-06T19:46:54.945Z,66.60
2018-09-06T19:49:23.703Z,66.80
2018-09-06T19:51:52.146Z,67.20
2018-09-06T19:54:20.619Z,67.30
2018-09-06T19:56:48.952Z,67.30
2018-09-06T19:59:17.346Z,67.10
2018-09-06T20:01:45.804Z,67.00
2018-09-06T20:04:14.585Z,67.10
2018-09-06T20:06:42.965Z,67.20
2018-09-06T20:09:11.381Z,67.50
2018-09-06T20:11:39.728Z,67.40
2018-09-06T20:14:08.056Z,67.20
2018-09-06T20:16:36.813Z,67.20
2018-09-06T20:19:05.221Z,67.20
2018-09-06T20:21:33.655Z,67.20
2018-09-06T20:24:02.241Z,67.50
2018-09-06T20:26:30.759Z,67.60
2018-09-06T20:28:59.059Z,67.20
2018-09-06T20:31:27.438Z,67.50
2018-09-06T20:33:55.769Z,66.50
2018-09-06T20:36:24.089Z,66.40
2018-09-06T20:38:52.427Z,66.50
2018-09-06T20:41:20.755Z,66.70
2018-09-06T20:43:49.062Z,66.50
2018-09-06T20:46:17.389Z,66.40
2018-09-06T20:48:45.755Z,66.50
2018-09-06T20:51:14.105Z,66.50
2018-09-06T20:53:42.433Z,66.60
2018-09-06T20:56:10.735Z,67.10
2018-09-06T20:58:39.025Z,67.00
2018-09-06T21:01:07.309Z,66.50
2018-09-06T21:03:35.731Z,66.10
2018-09-06T21:06:03.999Z,65.90
2018-09-06T21:08:32.335Z,65.80
2018-09-06T21:11:00.595Z,66.30
2018-09-06T21:13:28.901Z,66.20
2018-09-06T21:15:57.227Z,66.10
2018-09-06T21:18:25.501Z,66.10
2018-09-06T21:20:53.773Z,66.10
2018-09-06T21:23:22.133Z,66.40
2018-09-06T21:25:50.507Z,66.70
2018-09-06T21:28:18.820Z,66.80
2018-09-06T21:30:47.113Z,66.70
2018-09-06T21:33:15.482Z,66.20
2018-09-06T21:35:43.777Z,66.00
2018-09-06T21:38:12.066Z,65.90
2018-09-06T21:40:40.338Z,66.00
2018-09-06T21:43:08.636Z,66.30
2018-09-06T21:45:36.903Z,66.30
2018-09-06T21:48:05.199Z,66.40
2018-09-06T21:50:33.467Z,66.40
2018-09-06T21:53:01.744Z,66.80
2018-09-06T21:55:30.023Z,67.10
2018-09-06T21:57:58.321Z,67.50
2018-09-06T22:00:26.717Z,67.60
2018-09-06T22:03:00.308Z,67.20
2018-09-06T22:05:28.578Z,67.00
2018-09-06T22:07:56.843Z,67.00
2018-09-06T22:10:25.173Z,67.10
2018-09-06T22:12:53.687Z,67.50
2018-09-06T22:15:22.367Z,67.50
2018-09-06T22:17:50.643Z,67.40
2018-09-06T22:20:18.925Z,67.60
2018-09-06T22:22:47.179Z,67.80
2018-09-06T22:25:15.469Z,68.10
2018-09-06T22:27:43.757Z,68.50
2018-09-06T22:30:12.145Z,68.60
2018-09-06T22:32:40.473Z,69.00
2018-09-06T22:35:08.740Z,68.30
2018-09-06T22:37:37.001Z,68.00
2018-09-06T22:40:05.608Z,67.70
2018-09-06T22:42:33.871Z,68.00
2018-09-06T22:45:02.152Z,68.30
2018-09-06T22:47:30.407Z,68.20
2018-09-06T22:49:58.793Z,68.10
2018-09-06T22:52:27.107Z,68.20
2018-09-06T22:54:55.407Z,68.50
2018-09-06T22:57:23.655Z,68.60
2018-09-06T22:59:51.953Z,68.90
2018-09-06T23:02:20.321Z,68.80
2018-09-06T23:04:48.595Z,68.50
2018-09-06T23:07:16.966Z,68.50
2018-09-06T23:09:45.276Z,68.50
2018-09-06T23:12:13.539Z,68.50
2018-09-06T23:14:41.792Z,68.70
2018-09-06T23:17:10.104Z,68.50
2018-09-06T23:19:38.396Z,68.00
2018-09-06T23:22:07.033Z,67.60
2018-09-06T23:24:35.304Z,67.40
2018-09-06T23:27:03.574Z,67.40
2018-09-06T23:29:31.837Z,67.40
2018-09-06T23:32:00.088Z,67.20
2018-09-06T23:34:32.576Z,67.10
2018-09-06T23:37:00.872Z,67.00
2018-09-06T23:39:29.155Z,67.20
2018-09-06T23:41:57.440Z,67.50
2018-09-06T23:44:25.704Z,67.60
2018-09-06T23:46:53.980Z,67.60
2018-09-06T23:49:22.304Z,67.10
2018-09-06T23:51:50.560Z,66.70
2018-09-06T23:54:18.844Z,66.60
2018-09-06T23:56:47.096Z,66.60
2018-09-06T23:59:15.376Z,66.70
